Time;durP1;ratioP1;P1;durP2;ratioP2;P2;SDS_P1;SDS_P2;PMS_P1;PMS_P2;Temp;Humidity;BMP_temperature;BMP_pressure;BME280_temperature;BME280_humidity;BME280_pressure;Samples;Min_cycle;Max_cycle;Signal;HPM_P1;HPM_P2
2022/01/13 00:02:04;;;;;;;7.70;3.13;;;;;;;-1.93;53.53;95870.56;4994074;28;20034;-85
2022/01/13 00:04:30;;;;;;;9.63;3.25;;;;;;;-1.98;54.40;95883.84;4993322;28;20042;-85
2022/01/13 00:06:55;;;;;;;7.35;3.10;;;;;;;-2.22;56.00;95887.84;4993934;28;20031;-86
2022/01/13 00:09:21;;;;;;;10.18;3.15;;;;;;;-2.24;53.21;95883.81;4977969;28;20088;-85
2022/01/13 00:11:48;;;;;;;9.30;3.60;;;;;;;-2.45;55.11;95878.03;4977772;28;20035;-86
2022/01/13 00:17:06;;;;;;;9.95;3.38;;;;;;;-2.60;56.00;95872.63;4977608;28;20034;-86
2022/01/13 00:19:48;;;;;;;7.75;3.60;;;;;;;-2.75;58.26;95872.34;4977606;28;20053;-86
2022/01/13 00:22:20;;;;;;;7.15;3.58;;;;;;;-2.91;58.36;95883.25;4992005;28;20033;-85
2022/01/13 00:24:50;;;;;;;9.25;3.47;;;;;;;-2.81;55.99;95890.88;4993179;28;20039;-85
2022/01/13 00:27:16;;;;;;;10.63;3.50;;;;;;;-2.70;57.29;95885.53;4977577;28;20033;-85
2022/01/13 00:29:44;;;;;;;6.45;2.85;;;;;;;-2.86;59.19;95886.19;4993597;28;20321;-85
2022/01/13 00:32:12;;;;;;;6.50;3.05;;;;;;;-2.94;59.61;95887.88;4977579;28;20027;-86
2022/01/13 00:34:38;;;;;;;8.75;3.70;;;;;;;-2.94;59.58;95883.56;4993562;28;20108;-85
2022/01/13 00:37:04;;;;;;;12.38;2.92;;;;;;;-3.00;59.48;95892.63;4977479;28;20137;-85
2022/01/13 00:39:29;;;;;;;9.30;3.60;;;;;;;-3.12;59.87;95883.53;4977539;28;20036;-85
2022/01/13 00:41:55;;;;;;;12.57;3.38;;;;;;;-3.26;60.54;95884.78;4978202;28;20027;-85
2022/01/13 00:44:21;;;;;;;7.80;3.45;;;;;;;-3.39;59.66;95892.00;4993206;28;20121;-85
2022/01/13 00:46:56;;;;;;;7.32;3.28;;;;;;;-3.15;60.89;95884.59;4977318;28;20065;-86
2022/01/13 00:49:22;;;;;;;6.80;2.85;;;;;;;-3.28;60.91;95892.66;4976705;28;20031;-85
2022/01/13 00:51:48;;;;;;;7.75;2.92;;;;;;;-3.03;59.29;95890.34;4977471;28;20081;-86
2022/01/13 00:54:14;;;;;;;11.32;3.08;;;;;;;-2.85;62.66;95892.13;4993161;28;20092;-86
2022/01/13 00:56:40;;;;;;;11.10;3.25;;;;;;;-2.89;62.11;95903.63;4977710;28;20332;-86
2022/01/13 00:59:09;;;;;;;9.95;3.53;;;;;;;-2.97;62.24;95896.66;4977255;28;20030;-85
2022/01/13 01:01:36;;;;;;;13.32;3.60;;;;;;;-3.15;65.43;95901.75;4961357;28;20033;-86
2022/01/13 01:04:03;;;;;;;11.90;3.67;;;;;;;-3.26;63.94;95897.63;4960915;28;20340;-86
2022/01/13 01:06:28;;;;;;;9.93;3.85;;;;;;;-3.24;61.72;95889.78;4977342;28;20125;-86
2022/01/13 01:08:54;;;;;;;9.07;3.60;;;;;;;-3.01;60.40;95905.59;4992996;28;20437;-85
2022/01/13 01:11:20;;;;;;;11.38;3.92;;;;;;;-3.13;62.31;95905.00;4976792;28;20031;-85
2022/01/13 01:13:48;;;;;;;9.88;3.30;;;;;;;-3.02;63.78;95919.38;4978221;28;20437;-86
2022/01/13 01:16:13;;;;;;;8.70;3.15;;;;;;;-3.07;62.82;95914.66;4976958;28;20444;-85
2022/01/13 01:21:33;;;;;;;11.60;3.20;;;;;;;-3.00;63.00;95920.03;4991962;28;20049;-86
2022/01/13 01:24:32;;;;;;;7.15;2.67;;;;;;;-3.22;63.69;95929.72;4963063;28;20035;-85
2022/01/13 01:27:16;;;;;;;9.07;2.95;;;;;;;-2.73;64.34;95926.06;4988845;28;20432;-86
2022/01/13 01:29:50;;;;;;;9.57;2.97;;;;;;;-3.01;65.92;95934.63;4976864;28;20027;-85
2022/01/13 01:32:17;;;;;;;8.25;3.05;;;;;;;-3.04;65.16;95934.09;4984819;28;20428;-85
2022/01/13 01:34:54;;;;;;;8.30;3.17;;;;;;;-3.02;66.78;95934.75;4996195;28;20491;-86
2022/01/13 01:37:23;;;;;;;8.68;3.20;;;;;;;-2.81;65.21;95941.38;4996149;28;20444;-86
2022/01/13 01:39:50;;;;;;;6.70;3.40;;;;;;;-2.93;65.17;95951.03;4995944;28;20030;-85
2022/01/13 01:42:20;;;;;;;11.95;3.17;;;;;;;-2.70;64.86;95947.13;4995778;28;20066;-86
2022/01/13 01:44:49;;;;;;;8.48;3.33;;;;;;;-2.80;65.69;95951.50;4976648;28;20045;-85
2022/01/13 01:47:16;;;;;;;12.43;3.20;;;;;;;-2.57;66.48;95959.59;4976430;28;20457;-85
2022/01/13 01:49:45;;;;;;;9.32;3.20;;;;;;;-2.63;67.38;95957.63;4976659;28;20050;-86
2022/01/13 01:52:12;;;;;;;6.78;3.33;;;;;;;-2.57;68.41;95951.09;4991694;28;20463;-86
2022/01/13 01:54:38;;;;;;;8.02;2.72;;;;;;;-2.42;69.29;95956.53;4979335;28;20077;-86
2022/01/13 01:57:05;;;;;;;16.08;3.63;;;;;;;-2.09;69.89;95964.50;5011996;28;20101;-85
2022/01/13 01:59:33;;;;;;;10.10;3.30;;;;;;;-2.41;71.79;95960.69;4992690;28;20030;-86
2022/01/13 02:01:59;;;;;;;6.75;3.08;;;;;;;-2.06;70.06;95961.66;4969137;28;20026;-87
2022/01/13 02:04:26;;;;;;;8.38;3.25;;;;;;;-2.29;73.49;95956.19;4964687;28;20425;-86
2022/01/13 02:06:56;;;;;;;12.13;3.58;;;;;;;-2.35;74.23;95956.75;4980197;28;20034;-86
2022/01/13 02:09:22;;;;;;;11.10;3.65;;;;;;;-2.44;74.93;95961.00;5011135;28;20030;-85
2022/01/13 02:11:53;;;;;;;10.82;3.88;;;;;;;-2.38;74.32;95955.28;4983245;28;20036;-85
2022/01/13 02:14:33;;;;;;;8.32;3.50;;;;;;;-2.38;74.71;95955.28;5015494;28;20056;-85
2022/01/13 02:17:10;;;;;;;14.40;3.47;;;;;;;-2.28;75.65;95965.50;4999410;28;20030;-86
2022/01/13 02:19:42;;;;;;;12.18;3.45;;;;;;;-2.26;76.73;95958.44;5015924;28;20026;-85
2022/01/13 02:22:08;;;;;;;10.02;3.20;;;;;;;-2.33;78.47;95954.84;4999618;28;20499;-85
2022/01/13 02:24:34;;;;;;;7.93;2.90;;;;;;;-2.51;81.33;95960.78;4983098;28;20120;-85
2022/01/13 02:27:00;;;;;;;11.13;3.25;;;;;;;-2.56;84.83;95952.72;4999038;28;20410;-86
2022/01/13 02:29:26;;;;;;;10.65;3.22;;;;;;;-2.58;84.64;95959.75;5015374;28;20038;-85
2022/01/13 02:31:52;;;;;;;10.57;2.92;;;;;;;-2.56;85.34;95962.97;4998988;28;20030;-85
2022/01/13 02:34:18;;;;;;;8.05;3.10;;;;;;;-2.39;82.96;95974.19;5000151;28;20061;-86
2022/01/13 02:36:46;;;;;;;9.70;3.75;;;;;;;-2.30;82.73;95972.50;4998906;28;20026;-85
2022/01/13 02:39:11;;;;;;;10.35;3.78;;;;;;;-2.16;80.99;95973.78;5015614;28;20030;-85
2022/01/13 02:41:37;;;;;;;9.27;3.58;;;;;;;-2.32;81.19;95972.66;5000065;28;20092;-86
2022/01/13 02:44:03;;;;;;;6.65;3.20;;;;;;;-2.47;84.24;95962.09;4998734;28;20030;-85
2022/01/13 02:49:00;;;;;;;15.90;3.70;;;;;;;-2.57;85.17;95984.47;4998739;28;20037;-85
2022/01/13 02:51:27;;;;;;;7.45;3.33;;;;;;;-2.46;85.14;95973.19;4998786;28;20023;-86
2022/01/13 02:53:52;;;;;;;9.40;3.67;;;;;;;-2.53;84.06;95975.53;4998655;28;20044;-85
2022/01/13 02:56:18;;;;;;;16.08;3.47;;;;;;;-2.60;86.43;95982.16;4982715;28;20097;-85
2022/01/13 02:58:45;;;;;;;10.07;3.70;;;;;;;-2.65;86.45;95984.38;4982497;28;20431;-85
2022/01/13 03:01:11;;;;;;;10.98;3.53;;;;;;;-2.67;86.07;95988.84;4999514;28;20030;-85
2022/01/13 03:03:38;;;;;;;12.13;3.72;;;;;;;-2.76;89.77;95993.88;4998186;28;20038;-85
2022/01/13 03:06:12;;;;;;;12.07;3.25;;;;;;;-2.75;92.32;96000.63;5000107;28;20034;-85
2022/01/13 03:08:41;;;;;;;12.25;3.35;;;;;;;-2.84;91.46;95992.03;4998466;28;20125;-85
2022/01/13 03:11:06;;;;;;;8.82;3.60;;;;;;;-2.72;89.82;95992.66;4998059;28;20038;-85
2022/01/13 03:13:32;;;;;;;13.00;4.38;;;;;;;-2.73;93.64;95993.56;4978551;28;20451;-85
2022/01/13 03:15:58;;;;;;;11.13;3.45;;;;;;;-2.73;90.13;95993.56;4979088;28;20092;-85
2022/01/13 03:18:23;;;;;;;10.43;3.75;;;;;;;-2.39;87.07;95988.81;4962821;28;20065;-85
2022/01/13 03:20:49;;;;;;;8.93;3.83;;;;;;;-2.70;88.52;95983.06;4962678;28;20030;-85
2022/01/13 03:23:19;;;;;;;9.43;3.65;;;;;;;-2.57;87.71;95981.91;4962916;28;20038;-86
2022/01/13 03:25:45;;;;;;;7.57;3.35;;;;;;;-2.55;85.67;95982.56;4979741;28;20034;-85
2022/01/13 03:28:16;;;;;;;9.98;4.05;;;;;;;-2.57;85.74;95987.03;4994841;28;20038;-85
2022/01/13 03:30:43;;;;;;;9.23;4.00;;;;;;;-2.45;86.88;95985.06;4978618;28;20026;-85
2022/01/13 03:33:09;;;;;;;10.50;3.78;;;;;;;-2.65;88.90;95974.94;4978322;28;20027;-85
2022/01/13 03:35:36;;;;;;;12.85;4.28;;;;;;;-2.64;90.14;95976.53;4978368;28;20026;-85
2022/01/13 03:38:03;;;;;;;10.15;4.10;;;;;;;-2.60;87.14;95984.72;4978272;28;20038;-85
2022/01/13 03:40:29;;;;;;;8.75;3.53;;;;;;;-2.70;89.59;95980.47;4962516;28;20034;-85
2022/01/13 03:42:54;;;;;;;9.70;3.63;;;;;;;-2.96;94.80;95984.66;4962625;28;20420;-85
2022/01/13 03:45:21;;;;;;;11.30;3.92;;;;;;;-3.16;100.00;95985.56;4978328;28;20062;-85
2022/01/13 03:47:46;;;;;;;9.93;3.88;;;;;;;-3.13;100.00;95976.78;4978105;28;20189;-85
2022/01/13 03:50:12;;;;;;;23.52;4.30;;;;;;;-3.25;96.79;95971.00;4978392;28;20034;-85
2022/01/13 03:53:10;;;;;;;11.95;4.15;;;;;;;-3.33;100.00;95979.41;4962347;28;20026;-85
2022/01/13 03:55:35;;;;;;;14.25;3.90;;;;;;;-3.51;100.00;95986.22;4944516;28;20117;-85
2022/01/13 03:58:42;;;;;;;10.32;4.13;;;;;;;-3.43;100.00;95974.31;4979475;28;20098;-85
2022/01/13 04:01:28;;;;;;;7.63;3.28;;;;;;;-3.48;100.00;95963.69;4959339;28;20043;-85
2022/01/13 04:03:54;;;;;;;9.45;3.47;;;;;;;-3.51;99.74;95970.81;4992775;28;20034;-85
2022/01/13 04:06:19;;;;;;;7.25;3.25;;;;;;;-3.38;95.80;95960.25;4991773;28;20041;-85
2022/01/13 04:08:46;;;;;;;9.73;3.53;;;;;;;-3.37;87.53;95952.44;4983326;28;20030;-85
2022/01/13 04:11:41;;;;;;;8.32;3.30;;;;;;;-3.08;83.79;95960.97;4977891;28;20037;-85
2022/01/13 04:14:08;;;;;;;9.65;3.45;;;;;;;-3.23;84.66;95958.06;4974146;28;20056;-85
2022/01/13 04:16:36;;;;;;;10.48;3.65;;;;;;;-3.26;89.63;95951.44;4977619;28;20121;-85
2022/01/13 04:19:07;;;;;;;12.55;3.35;;;;;;;-3.10;79.82;95952.59;4977579;28;20026;-85
2022/01/13 04:21:35;;;;;;;7.93;3.35;;;;;;;-3.37;80.14;95960.13;4993339;28;20034;-85
2022/01/13 04:24:00;;;;;;;8.20;2.80;;;;;;;-3.23;78.80;95960.63;4978352;28;20039;-85
2022/01/13 04:26:30;;;;;;;10.75;3.60;;;;;;;-3.19;76.57;95970.47;4980968;28;20401;-85
2022/01/13 04:31:40;;;;;;;8.13;3.20;;;;;;;-3.19;74.83;95975.59;4984224;28;20036;-85
2022/01/13 04:34:06;;;;;;;7.82;2.83;;;;;;;-2.88;69.31;95990.69;4993333;28;20031;-85
2022/01/13 04:36:32;;;;;;;9.02;3.78;;;;;;;-2.68;65.98;95992.38;4977331;28;20040;-85
2022/01/13 04:38:57;;;;;;;7.40;3.10;;;;;;;-3.12;69.82;95998.91;4978247;28;20037;-85
2022/01/13 04:41:33;;;;;;;6.80;3.47;;;;;;;-3.20;68.35;95996.22;4977421;28;20039;-85
2022/01/13 04:43:59;;;;;;;8.50;3.47;;;;;;;-2.88;64.40;95995.81;4977031;28;20089;-85
2022/01/13 04:46:25;;;;;;;5.90;2.83;;;;;;;-3.07;64.81;95996.72;4993375;28;20046;-85
2022/01/13 04:48:50;;;;;;;9.35;3.50;;;;;;;-3.16;67.63;96002.69;4977194;28;20515;-85
2022/01/13 04:51:16;;;;;;;8.35;3.30;;;;;;;-3.20;66.18;95998.78;5001958;28;20128;-85
2022/01/13 04:53:41;;;;;;;7.65;3.33;;;;;;;-2.87;63.40;96006.88;4996294;28;20037;-85
2022/01/13 04:56:14;;;;;;;9.50;2.55;;;;;;;-2.67;60.36;95999.09;4980613;28;20129;-85
2022/01/13 04:58:39;;;;;;;8.50;3.33;;;;;;;-2.75;60.13;95995.47;4981630;28;20026;-85
2022/01/13 05:01:05;;;;;;;6.88;2.88;;;;;;;-2.85;58.33;95995.53;4996653;28;20490;-85
2022/01/13 05:03:31;;;;;;;6.65;3.10;;;;;;;-2.92;58.68;95999.63;4980236;28;20133;-85
2022/01/13 05:05:56;;;;;;;14.23;4.28;;;;;;;-2.51;57.90;95996.72;4996504;28;20049;-85
2022/01/13 05:08:24;;;;;;;9.98;3.38;;;;;;;-2.29;55.44;96000.63;5012830;28;20392;-85
2022/01/13 05:10:50;;;;;;;5.90;2.75;;;;;;;-2.33;56.52;95996.75;4977813;28;20031;-85
2022/01/13 05:13:15;;;;;;;8.23;2.97;;;;;;;-2.30;57.43;95995.63;4977000;28;20057;-85
2022/01/13 05:15:43;;;;;;;5.72;3.03;;;;;;;-2.52;58.62;96002.78;4977045;28;20038;-85
2022/01/13 05:20:59;;;;;;;7.15;2.72;;;;;;;-2.33;56.54;95996.75;4976814;28;20038;-85
2022/01/13 05:23:24;;;;;;;9.38;3.28;;;;;;;-2.60;56.12;96010.41;4985142;28;20411;-85
2022/01/13 05:25:50;;;;;;;11.90;2.90;;;;;;;-2.49;56.52;96002.50;4976937;28;20042;-85
2022/01/13 05:28:15;;;;;;;7.22;3.08;;;;;;;-2.36;55.01;96003.91;4978016;28;20085;-85
2022/01/13 05:30:41;;;;;;;7.88;3.40;;;;;;;-2.39;53.52;96002.44;4976877;28;20089;-85
2022/01/13 05:33:08;;;;;;;5.97;2.50;;;;;;;-2.34;54.52;95999.44;4976505;28;20041;-86
2022/01/13 05:35:34;;;;;;;7.10;3.10;;;;;;;-2.49;55.90;96011.97;4977983;28;20385;-85
2022/01/13 05:38:00;;;;;;;9.65;3.20;;;;;;;-2.66;56.80;96018.69;4980876;28;20077;-86
2022/01/13 05:40:25;;;;;;;6.82;3.00;;;;;;;-2.62;54.71;96012.31;4980493;28;20031;-85
2022/01/13 05:42:51;;;;;;;7.30;3.00;;;;;;;-2.70;54.46;96016.41;4980655;28;20440;-85
2022/01/13 05:45:19;;;;;;;12.32;3.08;;;;;;;-2.85;55.26;96021.19;4964523;28;20502;-85
2022/01/13 05:47:46;;;;;;;6.28;3.13;;;;;;;-3.00;59.73;96028.56;4980535;28;20030;-85
2022/01/13 05:50:13;;;;;;;6.40;3.05;;;;;;;-2.93;59.64;96033.09;4982443;28;20042;-85
2022/01/13 05:52:39;;;;;;;8.02;3.08;;;;;;;-3.16;61.65;96036.00;5016028;28;20156;-85
2022/01/13 05:55:05;;;;;;;7.20;3.22;;;;;;;-3.46;62.90;96042.97;5015194;28;20030;-85
2022/01/13 05:57:31;;;;;;;9.48;3.03;;;;;;;-3.51;62.65;96045.16;4999945;28;20049;-85
2022/01/13 06:00:00;;;;;;;6.32;3.10;;;;;;;-3.44;60.52;96041.09;4985700;28;20034;-85
2022/01/13 06:02:25;;;;;;;8.13;3.08;;;;;;;-3.42;59.92;96044.34;4980303;28;20035;-85
2022/01/13 06:04:51;;;;;;;9.10;3.33;;;;;;;-3.25;60.94;96042.00;4999605;28;20045;-85
2022/01/13 06:07:17;;;;;;;9.98;2.75;;;;;;;-2.88;59.38;96034.31;4999775;28;20045;-86
2022/01/13 06:09:43;;;;;;;7.43;3.20;;;;;;;-2.92;58.07;96038.13;4999421;28;20117;-85
2022/01/13 06:12:09;;;;;;;9.35;3.30;;;;;;;-2.99;60.18;96030.16;4983356;28;20339;-85
2022/01/13 06:14:35;;;;;;;6.93;3.10;;;;;;;-3.20;58.21;96027.81;4999381;28;20026;-85
2022/01/13 06:17:01;;;;;;;9.30;2.78;;;;;;;-3.02;57.21;96033.00;5000765;28;20426;-84
2022/01/13 06:19:26;;;;;;;15.05;5.75;;;;;;;-2.85;56.46;96040.91;5000833;28;20030;-85
2022/01/13 06:21:52;;;;;;;16.00;5.32;;;;;;;-2.99;56.37;96039.59;4999085;28;20026;-85
2022/01/13 06:24:17;;;;;;;22.58;7.00;;;;;;;-2.40;55.36;96023.13;4998962;28;20035;-85
2022/01/13 06:26:43;;;;;;;8.18;3.10;;;;;;;-2.50;54.65;96047.09;4999474;28;20030;-85
2022/01/13 06:29:08;;;;;;;11.32;3.75;;;;;;;-2.67;58.01;96053.78;4999184;28;20030;-85
2022/01/13 06:31:33;;;;;;;9.60;3.70;;;;;;;-3.32;67.81;96050.22;5000311;28;20038;-85
2022/01/13 06:33:59;;;;;;;7.63;3.38;;;;;;;-3.14;62.96;96052.88;4999066;28;20027;-85
2022/01/13 06:36:25;;;;;;;11.10;4.00;;;;;;;-3.39;60.22;96054.31;5000461;28;20034;-85
2022/01/13 06:38:51;;;;;;;8.02;3.38;;;;;;;-3.01;56.12;96055.16;5000192;28;20030;-85
2022/01/13 06:41:18;;;;;;;8.10;3.45;;;;;;;-2.75;53.72;96059.63;4998852;28;20030;-85
2022/01/13 06:43:44;;;;;;;5.93;2.72;;;;;;;-2.48;51.98;96064.94;5015100;28;20092;-85
2022/01/13 06:46:17;;;;;;;7.72;2.63;;;;;;;-2.62;53.44;96067.00;4998751;28;20041;-85
2022/01/13 06:48:43;;;;;;;5.75;2.60;;;;;;;-2.42;52.28;96067.72;4998881;28;20036;-85
2022/01/13 06:51:08;;;;;;;16.73;3.25;;;;;;;-2.60;55.18;96080.50;5014958;28;20109;-85
2022/01/13 06:53:34;;;;;;;10.90;3.13;;;;;;;-2.60;53.21;96084.81;4998939;28;20109;-85
2022/01/13 06:55:59;;;;;;;9.60;3.33;;;;;;;-2.63;53.64;96093.63;4982716;28;20069;-85
2022/01/13 06:58:25;;;;;;;7.28;2.50;;;;;;;-2.42;53.07;96090.00;5000042;28;20039;-85
2022/01/13 07:00:50;;;;;;;9.27;2.85;;;;;;;-2.52;54.05;96096.94;4999630;28;20030;-85
2022/01/13 07:03:16;;;;;;;7.63;3.10;;;;;;;-2.46;54.58;96107.44;4998265;28;20034;-85
2022/01/13 07:05:41;;;;;;;5.32;2.80;;;;;;;-2.44;51.30;96112.44;4998802;28;20355;-85
2022/01/13 07:08:10;;;;;;;7.80;2.80;;;;;;;-2.49;51.94;96130.03;4998644;28;20038;-85
2022/01/13 07:10:36;;;;;;;5.85;2.97;;;;;;;-2.46;52.93;96124.63;4998610;28;20034;-85
2022/01/13 07:13:03;;;;;;;7.38;2.78;;;;;;;-2.44;51.92;96113.28;4998536;28;20108;-85
2022/01/13 07:15:28;;;;;;;8.18;2.63;;;;;;;-2.23;53.35;96112.22;4998314;28;20436;-85
2022/01/13 07:17:54;;;;;;;8.25;2.60;;;;;;;-2.31;52.97;96119.81;5014780;28;20042;-85
2022/01/13 07:20:20;;;;;;;8.60;2.67;;;;;;;-2.21;54.18;96123.16;4982182;28;20030;-85
2022/01/13 07:22:46;;;;;;;7.97;3.33;;;;;;;-2.19;52.07;96123.81;4998249;28;20030;-85
2022/01/13 07:25:11;;;;;;;8.32;2.80;;;;;;;-2.02;54.34;96118.84;4998075;28;20031;-85
2022/01/13 07:27:37;;;;;;;5.30;2.25;;;;;;;-1.70;54.86;96117.56;4997985;28;20092;-85
2022/01/13 07:30:03;;;;;;;5.95;2.50;;;;;;;-1.87;52.48;96117.38;4999462;28;20038;-85
2022/01/13 07:32:29;;;;;;;6.45;3.05;;;;;;;-1.68;52.05;96136.22;4998136;28;20034;-84
2022/01/13 07:34:54;;;;;;;6.30;2.72;;;;;;;-1.50;54.66;96132.84;4999045;28;20019;-85
2022/01/13 07:37:24;;;;;;;5.90;2.42;;;;;;;-1.73;60.62;96121.22;4997912;28;20410;-85
2022/01/13 07:39:50;;;;;;;8.18;2.88;;;;;;;-1.71;57.18;96116.75;4998436;28;20026;-85
2022/01/13 07:42:16;;;;;;;5.32;2.70;;;;;;;-1.73;55.58;96108.38;4997704;28;20033;-85
2022/01/13 07:44:42;;;;;;;9.82;2.40;;;;;;;-1.65;54.82;96107.66;4981794;28;20126;-85
2022/01/13 07:47:07;;;;;;;4.65;2.42;;;;;;;-1.25;53.55;96107.31;4997616;28;20436;-85
2022/01/13 07:49:35;;;;;;;8.52;2.60;;;;;;;-1.30;53.26;96111.13;4997968;28;20039;-84
2022/01/13 07:52:01;;;;;;;6.78;2.70;;;;;;;-1.11;61.76;96116.25;4997841;28;20035;-85
2022/01/13 07:54:30;;;;;;;6.03;2.90;;;;;;;-1.02;57.03;96120.50;4981350;28;20085;-85
2022/01/13 07:56:56;;;;;;;7.85;3.30;;;;;;;-1.14;58.83;96131.03;4998888;28;20030;-85
2022/01/13 07:59:21;;;;;;;6.72;2.85;;;;;;;-1.25;58.90;96141.56;4998361;28;20053;-85
2022/01/13 08:01:47;;;;;;;6.82;2.40;;;;;;;-1.06;60.54;96150.88;4997615;28;20042;-85
2022/01/13 08:04:13;;;;;;;5.35;2.60;;;;;;;-1.26;58.44;96149.44;4997489;28;20419;-85
2022/01/13 08:06:38;;;;;;;8.02;2.55;;;;;;;-1.30;60.62;96147.13;4997332;28;20034;-85
2022/01/13 08:09:04;;;;;;;4.97;2.38;;;;;;;-1.18;59.42;96134.06;4981202;28;20520;-85
2022/01/13 08:11:29;;;;;;;6.63;2.92;;;;;;;-1.15;56.52;96141.47;4981070;28;20034;-85
2022/01/13 08:13:54;;;;;;;7.15;2.40;;;;;;;-1.20;56.67;96129.06;4997136;28;20109;-85
2022/01/13 08:16:20;;;;;;;5.68;2.50;;;;;;;-1.10;59.30;96130.72;4981131;28;20543;-85
2022/01/13 08:21:29;;;;;;;6.82;3.08;;;;;;;-0.95;58.43;96142.09;4997208;28;20463;-85
2022/01/13 08:23:55;;;;;;;11.77;2.83;;;;;;;-0.75;56.82;96141.91;4998122;28;20026;-85
2022/01/13 08:26:21;;;;;;;6.00;2.75;;;;;;;-0.70;56.65;96149.97;4996945;28;20061;-85
2022/01/13 08:28:46;;;;;;;7.30;2.70;;;;;;;-0.35;55.24;96155.97;4997208;28;20039;-85
2022/01/13 08:31:12;;;;;;;6.22;2.67;;;;;;;-0.37;56.98;96157.88;5013086;28;20030;-85
2022/01/13 08:33:39;;;;;;;8.98;2.30;;;;;;;-0.35;58.00;96163.69;4997067;28;20041;-85
2022/01/13 08:36:05;;;;;;;8.80;2.40;;;;;;;-0.32;56.80;96157.41;4997955;28;20117;-85
2022/01/13 08:38:30;;;;;;;5.57;2.50;;;;;;;-0.19;54.37;96165.50;4996747;28;20037;-85
2022/01/13 08:40:58;;;;;;;9.63;2.80;;;;;;;0.04;55.64;96164.97;4996885;28;20038;-85
2022/01/13 08:43:28;;;;;;;8.60;3.00;;;;;;;0.05;55.50;96163.19;5013120;28;20034;-85
2022/01/13 08:45:54;;;;;;;7.15;3.08;;;;;;;0.30;47.68;96178.72;5013001;28;20436;-85
2022/01/13 08:48:20;;;;;;;6.53;2.72;;;;;;;0.29;49.74;96175.34;4998331;28;20038;-85
2022/01/13 08:50:46;;;;;;;5.30;2.78;;;;;;;0.52;61.07;96178.13;4997724;28;20030;-85
2022/01/13 08:53:14;;;;;;;9.70;2.90;;;;;;;0.47;56.89;96182.94;4980432;28;20031;-85
2022/01/13 08:55:39;;;;;;;6.90;3.00;;;;;;;0.49;56.38;96181.00;5012743;28;20022;-85
2022/01/13 08:58:05;;;;;;;6.32;2.42;;;;;;;0.35;57.33;96185.03;4996430;28;20045;-85
2022/01/13 09:00:32;;;;;;;5.28;2.58;;;;;;;0.47;59.92;96184.75;4996997;28;20077;-85
2022/01/13 09:02:57;;;;;;;5.97;2.47;;;;;;;0.37;58.35;96192.63;4997898;28;20038;-85
2022/01/13 09:05:23;;;;;;;8.68;2.88;;;;;;;0.52;56.39;96191.03;4996428;28;20037;-85
2022/01/13 09:07:48;;;;;;;6.80;2.72;;;;;;;0.53;55.55;96200.38;4996302;28;20105;-86
2022/01/13 09:10:15;;;;;;;7.38;2.90;;;;;;;0.61;55.85;96193.63;4979235;28;20088;-85
2022/01/13 09:12:40;;;;;;;7.85;2.67;;;;;;;0.76;52.28;96191.22;4997862;28;20093;-85
2022/01/13 09:15:30;;;;;;;8.23;2.55;;;;;;;0.79;56.45;96199.47;4980138;28;20026;-85
2022/01/13 09:21:18;;;;;;;6.75;3.08;;;;;;;0.74;61.74;96214.59;4997179;28;20088;-85
2022/01/13 09:23:43;;;;;;;6.75;2.97;;;;;;;0.67;58.81;96226.53;4996324;28;20351;-85
2022/01/13 09:26:09;;;;;;;6.68;2.97;;;;;;;0.70;58.82;96231.38;4996264;28;20026;-85
2022/01/13 09:28:35;;;;;;;8.30;3.17;;;;;;;0.99;61.60;96225.75;4997505;28;20037;-85
2022/01/13 09:31:01;;;;;;;9.30;2.80;;;;;;;0.89;59.92;96226.88;5012258;28;20033;-85
2022/01/13 09:33:26;;;;;;;12.00;3.45;;;;;;;0.87;60.06;96205.59;4980059;28;20029;-85
2022/01/13 09:35:52;;;;;;;6.35;3.25;;;;;;;0.84;59.38;96209.28;4997181;28;20026;-85
2022/01/13 09:38:17;;;;;;;6.20;2.53;;;;;;;0.97;60.22;96214.78;4980027;28;20029;-85
2022/01/13 09:40:45;;;;;;;6.80;3.17;;;;;;;1.05;58.75;96216.56;4995986;28;20113;-85
2022/01/13 09:43:12;;;;;;;8.80;3.58;;;;;;;1.12;59.01;96217.53;4996142;28;20030;-85
2022/01/13 09:45:38;;;;;;;6.45;2.90;;;;;;;1.29;55.62;96209.78;5012163;28;20038;-82
2022/01/13 09:48:04;;;;;;;4.65;2.60;;;;;;;1.46;55.96;96217.50;4995935;28;20026;-85
2022/01/13 09:50:30;;;;;;;5.13;2.78;;;;;;;1.71;52.34;96214.88;4995904;28;20350;-85
2022/01/13 09:52:55;;;;;;;6.18;2.72;;;;;;;1.97;50.76;96220.63;4995755;28;20030;-85
2022/01/13 09:55:21;;;;;;;7.13;3.08;;;;;;;1.84;52.46;96221.13;4996054;28;20416;-85
2022/01/13 09:57:48;;;;;;;6.47;3.00;;;;;;;1.86;51.13;96226.16;5012439;28;20034;-85
2022/01/13 10:00:21;;;;;;;7.03;3.03;;;;;;;1.87;50.29;96220.00;4996234;28;20027;-85
2022/01/13 10:02:47;;;;;;;7.35;3.25;;;;;;;1.86;46.08;96220.97;4980005;28;20057;-86
2022/01/13 10:05:16;;;;;;;6.07;3.00;;;;;;;1.78;46.71;96219.22;4995929;28;20407;-85
2022/01/13 10:07:43;;;;;;;10.60;2.85;;;;;;;2.14;44.99;96219.75;4979748;28;20026;-85
2022/01/13 10:10:15;;;;;;;6.65;2.83;;;;;;;2.11;45.93;96211.34;4995702;28;20033;-86
2022/01/13 10:12:43;;;;;;;5.57;2.78;;;;;;;2.21;46.14;96207.75;5012121;28;20432;-86
2022/01/13 10:17:57;;;;;;;6.38;3.25;;;;;;;2.22;45.58;96212.78;4996866;28;20041;-85
2022/01/13 10:20:27;;;;;;;7.18;2.78;;;;;;;2.24;47.88;96215.19;4979890;28;20030;-86
2022/01/13 10:22:53;;;;;;;5.25;2.67;;;;;;;2.23;46.82;96214.38;4982787;28;20026;-85
2022/01/13 10:25:29;;;;;;;13.85;2.67;;;;;;;2.32;46.48;96215.16;5000367;28;20113;-85
2022/01/13 10:27:55;;;;;;;5.57;2.78;;;;;;;2.32;46.61;96219.50;5000352;28;20026;-86
2022/01/13 10:30:26;;;;;;;5.25;2.75;;;;;;;2.24;45.53;96220.34;4999071;28;20073;-85
2022/01/13 10:32:52;;;;;;;7.00;3.03;;;;;;;2.19;43.28;96213.09;4999204;28;20034;-83
2022/01/13 10:35:21;;;;;;;5.68;2.65;;;;;;;2.40;46.42;96212.50;4999062;28;20026;-83
2022/01/13 10:37:54;;;;;;;6.28;3.10;;;;;;;2.50;46.91;96208.91;4983248;28;20400;-83
2022/01/13 10:40:26;;;;;;;10.67;3.20;;;;;;;2.39;45.79;96202.34;4983540;28;20022;-83
2022/01/13 10:45:26;;;;;;;5.15;2.72;;;;;;;2.45;44.97;96201.66;4998760;28;20031;-83
2022/01/13 10:47:53;;;;;;;8.93;3.47;;;;;;;2.59;44.07;96201.91;4999278;28;20030;-83
2022/01/13 10:50:24;;;;;;;12.40;3.75;;;;;;;2.40;45.45;96203.97;4982741;28;20034;-83
2022/01/13 10:52:50;;;;;;;9.95;3.47;;;;;;;2.85;42.70;96204.16;4982684;28;20459;-83
2022/01/13 10:55:19;;;;;;;9.70;3.88;;;;;;;2.90;43.65;96199.28;4999151;28;20022;-85
2022/01/13 10:57:45;;;;;;;6.65;2.90;;;;;;;2.93;43.82;96198.94;5014949;28;20403;-85
2022/01/13 11:00:17;;;;;;;8.23;3.65;;;;;;;2.86;43.15;96202.38;4998447;28;20088;-85
2022/01/13 11:02:46;;;;;;;6.95;3.42;;;;;;;2.87;45.37;96193.63;4999796;28;20030;-85
2022/01/13 11:05:12;;;;;;;5.63;2.88;;;;;;;3.02;43.41;96191.13;5015138;28;20062;-86
2022/01/13 11:07:40;;;;;;;8.90;3.40;;;;;;;3.01;40.06;96192.06;4998666;28;20035;-85
2022/01/13 11:10:07;;;;;;;7.78;3.10;;;;;;;3.01;42.25;96190.28;5014805;28;20117;-85
2022/01/13 11:12:38;;;;;;;10.25;3.83;;;;;;;3.11;44.85;96190.88;4998809;28;20080;-85
2022/01/13 11:15:06;;;;;;;5.78;2.85;;;;;;;3.23;46.28;96188.66;4999839;28;20038;-85
2022/01/13 11:17:38;;;;;;;6.55;3.15;;;;;;;3.19;40.69;96189.16;4998554;28;20125;-85
2022/01/13 11:20:05;;;;;;;5.35;2.97;;;;;;;3.25;40.60;96180.72;5014373;28;20037;-85
2022/01/13 11:22:35;;;;;;;6.15;3.38;;;;;;;3.30;41.80;96183.56;4998420;28;20041;-85
2022/01/13 11:25:05;;;;;;;6.88;3.08;;;;;;;3.43;39.55;96175.19;4998374;28;20053;-85
2022/01/13 11:27:31;;;;;;;8.45;3.10;;;;;;;3.41;40.49;96179.75;5014684;28;20038;-85
2022/01/13 11:29:57;;;;;;;11.20;3.20;;;;;;;3.41;40.93;96177.16;4997952;28;20041;-84
2022/01/13 11:32:23;;;;;;;7.28;3.40;;;;;;;3.51;41.22;96174.28;5013926;28;20360;-86
2022/01/13 11:34:48;;;;;;;6.05;2.88;;;;;;;3.38;38.85;96173.16;4999334;28;20026;-86
2022/01/13 11:37:14;;;;;;;7.40;3.50;;;;;;;3.37;39.39;96168.13;4997976;28;20058;-86
2022/01/13 11:39:42;;;;;;;6.25;3.08;;;;;;;3.48;39.42;96167.69;4994840;28;20058;-86
2022/01/13 11:42:09;;;;;;;8.57;3.17;;;;;;;3.54;42.86;96166.97;4994700;28;20039;-86
2022/01/13 11:44:36;;;;;;;4.82;2.45;;;;;;;3.48;42.66;96157.34;4978214;28;20448;-86
2022/01/13 11:47:07;;;;;;;6.18;3.00;;;;;;;3.50;42.08;96157.13;4962305;28;20499;-86
2022/01/13 11:49:43;;;;;;;5.63;2.58;;;;;;;3.53;41.22;96157.59;4989363;28;20078;-86
2022/01/13 11:52:26;;;;;;;7.55;2.80;;;;;;;3.57;40.34;96154.63;4978515;28;20030;-86
2022/01/13 11:54:51;;;;;;;4.70;2.58;;;;;;;3.64;39.85;96145.97;4978702;28;20022;-86
2022/01/13 11:57:19;;;;;;;6.00;3.22;;;;;;;3.66;39.55;96151.00;4978059;28;20125;-86
2022/01/13 12:00:00;;;;;;;7.78;2.97;;;;;;;3.65;39.47;96159.75;4994363;28;20034;-86
2022/01/13 12:02:29;;;;;;;8.23;2.85;;;;;;;3.58;39.14;96151.06;4979013;28;20074;-83